Lexington Township, Maine
Current Conditions -  °F | °C
As of 4:35 PM on Monday 24 Nov 2014 (Local Time) from KWVL Reporting Station
Overcast Overcast  
Wind Chill: 59°   Ceiling: 300
Heat Index: 59°   Visibility: 9mi
Dew Point: 55°   Wind: 10mph
Humidity: 88%   Direction: 190°S
Pressure: 29.5"   Gusts: 21mph
Location:  45.0341°N, 70.0886°W
Report Text: KWVL 242135Z 19009G18KT 160V220 9SM OVC003 15/13 A2950 RMK AO1
Loading
Personal Weather Stations






























Interactive Weather Map New forecast layout! Learn more

10-Day Weather Forecast

Advertisements
Track Severe Weather on mobile